logo
App data

For The Glory: A Europa Universalis Game

Take up the reigns of your country, guide domestic and foreign policy, navigate thousands of historical events, engage in various struggles and lead your country to prosperity – all in the name of glory!
Store | Hub | SteamDB
Developer: Crystal Empire Games Publisher: Paradox Interactive
Genre: Strategy
Languages: English
Tags: Strategy (28), Grand Strategy (9), Historical (6)
Category: Single-player, Multi-player
Release date: Nov 11, 2009
Price: $9.99
Score rank: 34% Userscore: 71% Old userscore: 71%
Owners: 20,000 .. 50,000
Followers: 416
Peak concurrent players yesterday: 8
Playtime total: 01:00 (average) 01:04 (median)

Steam Spy is still in beta, so expect major bugs.

Owners data:

Access restricted.

This feature is only available to users with special access rights. Sorry.

If you want to proceed, you need to register or log in first and then back Steam Spy on Patreon. Look for Indie or Pro pledge.

Don't forget to use the same email as on Steam Spy!

Audience in 2 weeks:

Access restricted.

This feature is only available to users with special access rights. Sorry.

If you want to proceed, you need to register or log in first and then back Steam Spy on Patreon. Look for Indie or Pro pledge.

Don't forget to use the same email as on Steam Spy!

Peak daily concurrent players:

CCU data courtesy of SteamDB. Used with permission.

Hourly concurrent players:

YouTube:

The views data is based on top 50 videos uploaded last week. Actual number of views might be more than the number shown.

The displayed number of videos uploaded yesterday is limited to 50, so if there were more videos uploaded, the number will still show 50.

If the game has commonly used word as its name (like "FEAR" or "Volume") its number of Youtube views might be wrong.

Games similar to this one:

# Game Release date
Price
Score rank
(Userscore / Metascore)
Owners
Players
Playtime (Median)
1 Hostile Waters: Antaeus Rising Jan 30, 2014 $2.9997% (97%/80%)200,000 .. 500,0000%00:00 (00:00)
2 War of the Human Tanks - ALTeR Feb 13, 2015 $12.9993% (95%)0 .. 20,0000%00:00 (00:00)
3 Decisive Campaigns: Barbarossa Nov 24, 2015 $49.9993% (95%)0 .. 20,0000%00:00 (00:00)
4 Templar Battleforce Sep 21, 2015 $9.9990% (94%)20,000 .. 50,0000%00:00 (00:00)
5 Garden Rescue Feb 2, 2015 $3.9987% (93%)100,000 .. 200,0000.39%07:54 (05:16)
6 Darknet Jun 8, 2017 $14.9984% (92%)0 .. 20,0000%00:00 (00:00)
7 Zeus + Poseidon Dec 15, 2016 $9.9984% (92%)20,000 .. 50,0002.94%00:01 (00:00)
8 Battle Academy 2: Eastern Front Sep 12, 2014 $39.9980% (91%/78%)0 .. 20,0000%00:00 (00:00)
9 Children of a Dead Earth Sep 23, 2016 $24.9980% (91%)0 .. 20,00022.22%02:39 (01:13)
10 Kohan: Ahriman's Gift Aug 24, 2011 $9.99N/A (N/A/79%)0 .. 20,0000%00:00 (00:00)
11 Kittypocalypse Aug 15, 2016 $7.4974% (89%)0 .. 20,0000%00:00 (00:00)
12 Alien Robot Monsters Sep 9, 2015 $5.9971% (88%)0 .. 20,0000%00:00 (00:00)
13 Viking Saga: New World Nov 5, 2015 $3.99N/A (N/A)0 .. 20,0000%00:00 (00:00)
14 Star Ruler Sep 20, 2010 $9.9966% (86%)100,000 .. 200,0001%00:29 (00:19)
15 Stalingrad Mar 25, 2015 $4.9966% (86%)20,000 .. 50,0000%00:00 (00:00)
16 MechoEcho May 18, 2016 $9.99N/A (N/A)0 .. 20,0000%00:00 (00:00)
17 Enemy Mar 17, 2015 $14.9961% (84%)0 .. 20,0000%00:00 (00:00)
18 Conflicks - Revolutionary Space Battles Nov 5, 2015 $6.9958% (83%/63%)0 .. 20,0000%00:00 (00:00)
19 Advanced Tactics Gold Aug 15, 2014 $29.9958% (83%)0 .. 20,0005.88%00:15 (00:05)
20 Zombie Riot May 25, 2017 $19.99N/A (N/A)0 .. 20,0000%00:00 (00:00)
21 NOBUNAGA'S AMBITION: Sphere of Influence Sep 1, 2015 $59.9958% (83%/70%)20,000 .. 50,0000%00:00 (00:00)
22 Lords of the Realm Nov 30, 1994 $1.99N/A (N/A)0 .. 20,0000%00:00 (00:00)
23 Tank Warfare: Tunisia 1943 May 1, 2017 $39.9953% (81%)0 .. 20,0000%00:00 (00:00)
24 Radiant Defense Jul 11, 2014 $4.9951% (80%)0 .. 20,0000%00:00 (00:00)
25 Stellar Monarch Dec 5, 2016 $19.9949% (79%)0 .. 20,0000%00:00 (00:00)
26 Soldiers: Heroes of World War II Jul 3, 2014 $4.9949% (79%/77%)50,000 .. 100,0000%00:00 (00:00)
27 Drive on Moscow Oct 27, 2016 $9.99N/A (N/A)0 .. 20,0000%00:00 (00:00)
28 War on Folvos Aug 8, 2014 $3.9947% (78%)50,000 .. 100,0000%00:00 (00:00)
29 Hidden Dimensions 3 Oct 12, 2016 FreeN/A (N/A)0 .. 20,0000%00:00 (00:00)
30 Defense Zone 3 Ultra HD Dec 14, 2016 $2.9947% (78%)0 .. 20,0000%00:00 (00:00)
31 Catch Me Jun 11, 2016 $5.9947% (78%)0 .. 20,0000%00:00 (00:00)
32 Tank Battle: 1944 Mar 1, 2016 $9.99N/A (N/A)0 .. 20,0005.41%19:49 (13:12)
33 Star Hammer: The Vanguard Prophecy Jun 4, 2015 $19.9941% (75%/69%)0 .. 20,0000%00:00 (00:00)
34 Machines At War 3 Jul 23, 2014 $14.99N/A (N/A)0 .. 20,0000%00:00 (00:00)
35 Attack Heroes Apr 27, 2017 $9.9936% (72%)0 .. 20,0000%00:00 (00:00)
36 Pick a Hero Jun 9, 2016 $0.99N/A (N/A)0 .. 20,0000%00:00 (00:00)
37 Rooster Teeth vs. Zombiens Dec 19, 2014 N/A33% (70%)0 .. 20,0000%00:00 (00:00)
38 Little King's Story Aug 5, 2016 $19.9933% (70%/62%)0 .. 20,0000%00:00 (00:00)
39 Mosby's Confederacy Nov 19, 2008 $9.99N/A (N/A)0 .. 20,0000%00:00 (00:00)
40 Winds Of Trade Feb 13, 2017 $14.9931% (69%)0 .. 20,0000%00:00 (00:00)
41 Pure Chess Grandmaster Edition Sep 9, 2016 $15.9928% (67%)0 .. 20,0000%00:00 (00:00)
42 Helldorado Apr 30, 2009 $9.9928% (67%/65%)20,000 .. 50,0001.08%00:29 (00:09)
43 Deadstone Nov 12, 2014 $3.19N/A (N/A)0 .. 20,0000%00:00 (00:00)
44 Defect Jul 28, 2016 $14.99N/A (N/A)0 .. 20,0000%00:00 (00:00)
45 Battle of the Bulge Sep 17, 2015 $9.9924% (64%)0 .. 20,0000%00:00 (00:00)
46 Beasts Battle Jun 15, 2016 $1.9924% (64%)0 .. 20,0003.39%01:59 (00:39)
47 Element TD Jan 20, 2017 $0.99N/A (N/A)0 .. 20,0000%00:00 (00:00)
48 Cuban Missile Crisis: Ice Crusade Mar 25, 2015 $4.99N/A (N/A)20,000 .. 50,0000%00:00 (00:00)
49 Freight Tycoon Inc. Apr 3, 2014 $4.9921% (61%)20,000 .. 50,0000%00:00 (00:00)
50 Business Tour - Online Multiplayer Board Game Jul 27, 2017 Free21% (61%)1,000,000 .. 2,000,00016.23%04:12 (01:04)
51 Spice Road Apr 24, 2014 $19.9921% (61%)0 .. 20,0000%00:00 (00:00)
52 Eclipse: New Dawn for the Galaxy Sep 16, 2016 N/A19% (60%)0 .. 20,0000%00:00 (00:00)
53 Close Combat - Panthers in the Fog Nov 19, 2012 $39.9919% (60%)0 .. 20,0000%00:00 (00:00)
54 SunAge: Battle for Elysium Dec 15, 2014 $14.9919% (60%)0 .. 20,0000%00:00 (00:00)
55 Ninja Cats vs Samurai Dogs Feb 21, 2014 $4.99N/A (N/A)0 .. 20,0000%00:00 (00:00)
56 LA Cops Mar 13, 2015 $14.9918% (59%/45%)0 .. 20,0000%00:00 (00:00)
57 Check vs Mate Aug 16, 2012 $19.9917% (58%/69%)0 .. 20,0000%00:00 (00:00)
58 Life in Bunker Feb 25, 2016 $15.9917% (58%)0 .. 20,0000%00:00 (00:00)
59 Dungeon Manager ZV Oct 16, 2015 $9.9916% (57%)0 .. 20,0000%00:00 (00:00)
60 Gettysburg: The Tide Turns Jul 14, 2017 $9.99N/A (N/A)0 .. 20,0000%00:00 (00:00)
61 reconquest Dec 16, 2016 $11.9915% (55%)0 .. 20,0000%00:00 (00:00)
62 Front Wars Aug 17, 2015 $6.9912% (51%)0 .. 20,0000%00:00 (00:00)
63 3D Chess Dec 6, 2016 $9.99N/A (N/A)0 .. 20,00010%01:42 (00:34)
64 Desert Law Mar 25, 2015 $2.99N/A (N/A)0 .. 20,0000%00:00 (00:00)
65 Star Traders: 4X Empires Dec 16, 2014 $9.9910% (48%)0 .. 20,0000%00:00 (00:00)
66 Chronostorm: Siberian Border Apr 2, 2009 $0.99N/A (N/A)0 .. 20,0000%00:00 (00:00)
67 Clockwork Empires Oct 26, 2016 $29.999% (45%/58%)0 .. 20,0000%00:00 (00:00)
68 Zombie Wars: Invasion Jan 14, 2016 $2.997% (42%)20,000 .. 50,0001.39%06:39 (02:13)
69 Rulers of Nations Jul 16, 2014 $19.997% (42%/63%)0 .. 20,0000%00:00 (00:00)
70 Cubesis Aug 22, 2014 $4.99N/A (N/A)0 .. 20,0000%00:00 (00:00)
71 Sim Junta Aug 18, 2015 $1.995% (35%)0 .. 20,0000%00:00 (00:00)
72 CTU: Counter Terrorism Unit Apr 22, 2016 $4.994% (34%)0 .. 20,0000%00:00 (00:00)
73 Storm over the Pacific Jun 13, 2014 $9.99N/A (N/A)0 .. 20,0000%00:00 (00:00)
74 Power of Defense Aug 4, 2010 $9.99N/A (N/A)0 .. 20,0000%00:00 (00:00)
75 Fray: Reloaded Edition Jun 19, 2012 N/AN/A (N/A/27%)0 .. 20,0000%00:00 (00:00)

Tags over time:

Access restricted.

This feature is only available to users with special access rights. Sorry.

If you want to proceed, you need to register or log in first and then back Steam Spy on Patreon. Look for Indie or Pro pledge.

Don't forget to use the same email as on Steam Spy!

Owners of this game also own:

Access restricted.

This feature is only available to users with special access rights. Sorry.

If you want to proceed, you need to register or log in first and then back Steam Spy on Patreon. Look for Indie or Pro pledge.

Don't forget to use the same email as on Steam Spy!

Playtime distribution:

Access restricted.

This feature is only available to users with special access rights. Sorry.

If you want to proceed, you need to register or log in first and then back Steam Spy on Patreon. Look for Indie or Pro pledge.

Don't forget to use the same email as on Steam Spy!

Playtime (2 weeks):

Access restricted.

This feature is only available to users with special access rights. Sorry.

If you want to proceed, you need to register or log in first and then back Steam Spy on Patreon. Look for Indie or Pro pledge.

Don't forget to use the same email as on Steam Spy!

User reviews:

Login required.

Please register or log in to see this information.